Aérodrome :
LOGIN :

S'inscrire | Disclaimer

   EN    FR    IT 

 










Légende :    VFR   VFR Marginal   IFR   IFR Intensif   IFR Très Intensif
Visi : 
Plafond : 
>= 8 km
>= 3000ft
5 à 8 km
1000 à 3000 ft
1500m à 5 km
500 à 1000 ft
800 à 1500m
200 à 500 ft
< 800m
< 200 ft
Symboles :   Orages  Brouillard  Fortes neiges  Fortes précipitations  Vent > 20 kt
SIGMETs :   Divers  Orages  Givrage  Turbulence  Onde Orograph.  Cendres Volcan.






- Altitude de l'aérodrome : 919 ft
- Code IATA : IFO


UKLI - Ivano Frankivs'k

DERNIER METAR :
  • 241130Z 29009G15MPS 250V340 9999 -SHRA BKN016CB BKN026 05/00 Q1012 R28/190068 NOSIG

METARs EXPIRÉS :
  • 241108Z 29009G15MPS 250V330 9999 BKN016CB BKN026 05/01 Q1012 R28/190068 NOSIG
  • 241037Z 30009G15MPS 260V350 9999 -SHRA BKN016CB BKN026 05/01 Q1012 R28/190068 NOSIG
  • 241030Z 29008MPS 260V350 9999 -SHRA BKN016CB BKN026 04/01 Q1012 R28/190068 NOSIG
  • 241011Z 29008G13MPS 270V330 9999 BKN020CB BKN030 04/01 Q1012 R28/190068 NOSIG
  • 241000Z 29008MPS 260V330 9999 -SHRA BKN020CB BKN030 04/01 Q1011 R28/190068 NOSIG
  • 240930Z 29008MPS 260V340 9999 -SHRA BKN020CB BKN030 04/01 Q1011 R28/190068 NOSIG
  • 240900Z 30009G15MPS 260V340 9999 SCT024CB BKN033 04/M00 Q1011 R28/290565 NOSIG

TAF TAF UKLI
Valide du 24 à 12h jusqu'au 24 à 21h UTC


241103Z 2412/2421 28010G15MPS 9999 BKN015CB TX06/2412Z TN01/2421Z
TEMPO 2412/2421 30017G22MPS 2100 -SHRA BKN012CB



MET'MAP, la Météo Aéronautique d'un coup d'oeil ! - Copyright ORBIFLY Décembre 2007 - Disclaimer

ORBIFLY MET'MAP TEAM :

Programmation & Développement : Alexandra Zaïnal
Sur une idée originale de : Baudouin d'Aumeries
Assistance à la programmation : Marc-Olivier Méhu
Soutien technique & logistique : Manuel Goepfert

Contact : metmap@orbifly.com




SOURCES & CREDITS :

   NOAA